Port Alfred, South Africa
Current Conditions -  °F | °C
As of 12:00 AM on Tuesday 27 Jan 2015 (Local Time) from FAEL Reporting Station
Light Rain Light Rain  
Wind Chill: 72°   Ceiling: 1800
Heat Index: 72°   Visibility: 6mi
Dew Point: 72°   Wind: 10mph
Humidity: 100%   Direction: 250°WSW
Pressure: 30"   Gusts: NA
Location:  33.6°S, 26.88°E
Report Text: FAEL 262200Z 25009KT 9999 -RA SCT006 BKN018 22/22 Q1016
Loading
Personal Weather Stations






























Interactive Weather Map New forecast layout! Learn more

10-Day Weather Forecast

Advertisements
Track Severe Weather on mobile